Time;durP1;ratioP1;P1;durP2;ratioP2;P2;SDS_P1;SDS_P2;PMS_P1;PMS_P2;Temp;Humidity;BMP_temperature;BMP_pressure;BME280_temperature;BME280_humidity;BME280_pressure;Samples;Min_cycle;Max_cycle;Signal;HPM_P1;HPM_P2
2022/12/31 00:01:50;;;;;;;137.12;70.32;;;;;;;-0.70;100.00;98115.90;1731017;82;21055;-77
2022/12/31 00:04:17;;;;;;;156.30;81.40;;;;;;;-0.70;100.00;98122.55;1730846;82;20996;-77
2022/12/31 00:06:45;;;;;;;174.62;96.32;;;;;;;-0.67;100.00;98125.64;1730785;82;21020;-78
2022/12/31 00:09:12;;;;;;;176.63;89.15;;;;;;;-0.66;100.00;98135.77;1730982;82;21583;-78
2022/12/31 00:11:39;;;;;;;155.90;83.20;;;;;;;-0.69;100.00;98135.65;1730925;82;21012;-77
2022/12/31 00:14:06;;;;;;;164.45;83.50;;;;;;;-0.66;100.00;98131.78;1730936;82;21540;-76
2022/12/31 00:16:36;;;;;;;167.80;86.70;;;;;;;-0.63;100.00;98130.84;1731015;82;21012;-78
2022/12/31 00:19:06;;;;;;;176.85;93.17;;;;;;;-0.59;100.00;98134.75;1730923;82;21557;-78
2022/12/31 00:21:33;;;;;;;158.30;83.52;;;;;;;-0.52;100.00;98140.05;1750688;81;21007;-76
2022/12/31 00:24:01;;;;;;;146.13;77.17;;;;;;;-0.48;100.00;98142.63;1756231;81;21504;-78
2022/12/31 00:26:30;;;;;;;144.25;71.82;;;;;;;-0.48;100.00;98131.97;1761122;81;21046;-78
2022/12/31 00:28:57;;;;;;;130.50;67.17;;;;;;;-0.45;100.00;98139.53;1761363;81;24278;-78
2022/12/31 00:31:28;;;;;;;125.02;65.60;;;;;;;-0.42;100.00;98140.98;1761438;81;21098;-76
2022/12/31 00:33:55;;;;;;;199.53;94.40;;;;;;;-0.41;100.00;98143.44;1760971;81;21550;-77
2022/12/31 00:36:26;;;;;;;154.78;74.97;;;;;;;-0.39;100.00;98153.88;1761333;81;21014;-78
2022/12/31 00:38:55;;;;;;;137.52;68.07;;;;;;;-0.39;100.00;98152.03;1760745;81;20991;-78
2022/12/31 00:41:22;;;;;;;117.22;65.52;;;;;;;-0.38;100.00;98156.33;1761287;81;21483;-78
2022/12/31 00:43:49;;;;;;;133.78;68.42;;;;;;;-0.34;100.00;98156.75;1761146;81;21302;-76
2022/12/31 00:46:16;;;;;;;122.42;61.88;;;;;;;-0.36;100.00;98155.60;1761096;81;21015;-78
2022/12/31 00:48:43;;;;;;;126.15;61.48;;;;;;;-0.34;100.00;98153.58;1761176;81;21174;-79
2022/12/31 00:51:12;;;;;;;110.30;56.98;;;;;;;-0.31;100.00;98151.82;1761293;81;20991;-77
2022/12/31 00:53:39;;;;;;;118.25;57.48;;;;;;;-0.28;100.00;98153.23;1761131;81;21425;-77
2022/12/31 00:56:11;;;;;;;112.12;57.15;;;;;;;-0.25;100.00;98145.38;1746370;81;20996;-78
2022/12/31 00:58:38;;;;;;;95.07;51.98;;;;;;;-0.27;100.00;98140.74;1730973;82;21027;-77
2022/12/31 01:01:27;;;;;;;105.43;56.30;;;;;;;-0.30;100.00;98136.14;1731355;82;21067;-78
2022/12/31 01:03:58;;;;;;;96.57;49.00;;;;;;;-0.25;100.00;98132.06;1729509;81;21532;-77
2022/12/31 01:06:24;;;;;;;96.02;46.83;;;;;;;-0.23;100.00;98133.99;1731330;82;21004;-78
2022/12/31 01:08:52;;;;;;;106.78;53.38;;;;;;;-0.24;100.00;98135.02;1731107;82;21051;-78
2022/12/31 01:11:27;;;;;;;111.75;58.05;;;;;;;-0.21;100.00;98122.61;1731211;82;21028;-77
2022/12/31 01:13:56;;;;;;;108.55;56.83;;;;;;;-0.14;100.00;98110.92;1729315;82;21493;-78
2022/12/31 01:16:40;;;;;;;121.55;65.85;;;;;;;-0.06;100.00;98109.36;1730759;82;21059;-79
2022/12/31 01:19:10;;;;;;;119.55;64.55;;;;;;;0.03;100.00;98111.80;1731240;82;20997;-77
2022/12/31 01:21:38;;;;;;;103.47;58.42;;;;;;;0.10;100.00;98116.59;1749320;81;21001;-77
2022/12/31 01:24:06;;;;;;;105.75;54.45;;;;;;;0.14;100.00;98115.95;1757963;81;22124;-77
2022/12/31 01:26:33;;;;;;;110.15;63.45;;;;;;;0.21;100.00;98111.42;1758003;81;21532;-78
2022/12/31 01:29:00;;;;;;;96.80;48.50;;;;;;;0.31;100.00;98121.62;1757624;81;21017;-78
2022/12/31 01:31:27;;;;;;;92.33;53.25;;;;;;;0.39;100.00;98120.05;1745806;82;21504;-79
2022/12/31 01:33:54;;;;;;;88.33;50.85;;;;;;;0.66;100.00;98112.73;1768530;81;21009;-78
2022/12/31 01:36:26;;;;;;;87.17;50.38;;;;;;;0.75;100.00;98109.30;1745991;81;21453;-78
2022/12/31 01:38:56;;;;;;;94.13;53.33;;;;;;;0.81;100.00;98106.59;1768391;81;22258;-78
2022/12/31 01:41:28;;;;;;;83.62;46.73;;;;;;;0.83;100.00;98109.05;1768482;81;20984;-78
2022/12/31 01:44:00;;;;;;;76.47;45.48;;;;;;;0.81;100.00;98113.27;1715927;82;21461;-77
2022/12/31 01:46:38;;;;;;;82.95;39.85;;;;;;;0.88;100.00;98108.41;1768711;81;21000;-77
2022/12/31 01:49:21;;;;;;;63.87;36.50;;;;;;;1.05;100.00;98118.87;1745665;81;21020;-77
2022/12/31 01:51:53;;;;;;;88.78;50.15;;;;;;;1.17;100.00;98112.30;1734589;81;21052;-78
2022/12/31 01:54:20;;;;;;;84.60;45.40;;;;;;;1.26;100.00;98113.66;1761065;81;20977;-78
2022/12/31 01:56:48;;;;;;;61.00;33.40;;;;;;;1.29;100.00;98120.74;1764069;81;21011;-78
2022/12/31 01:59:16;;;;;;;63.58;34.43;;;;;;;1.60;100.00;98115.83;1764203;81;21066;-77
2022/12/31 02:01:45;;;;;;;65.45;36.83;;;;;;;1.98;100.00;98109.52;1764348;81;21457;-77
2022/12/31 02:04:12;;;;;;;72.10;41.50;;;;;;;2.27;100.00;98110.61;1764303;81;21004;-78
2022/12/31 02:06:46;;;;;;;74.65;39.85;;;;;;;2.42;100.00;98127.09;1764345;81;20984;-78
2022/12/31 02:09:13;;;;;;;72.25;42.45;;;;;;;2.46;100.00;98130.12;1734631;81;21035;-77
2022/12/31 02:11:40;;;;;;;70.92;40.35;;;;;;;2.48;100.00;98114.69;1764228;81;21451;-77
2022/12/31 02:14:22;;;;;;;60.03;37.20;;;;;;;2.42;100.00;98112.38;1764171;81;21011;-78
2022/12/31 02:17:27;;;;;;;66.00;41.35;;;;;;;2.40;100.00;98110.98;1763927;81;21033;-77
2022/12/31 02:20:25;;;;;;;84.70;53.23;;;;;;;2.39;100.00;98113.34;1762908;81;20989;-77
2022/12/31 02:23:39;;;;;;;82.97;42.35;;;;;;;2.43;100.00;98118.55;1719578;83;21043;-77
2022/12/31 02:26:29;;;;;;;65.28;38.95;;;;;;;2.45;100.00;98122.62;1749466;81;21007;-77
2022/12/31 02:29:16;;;;;;;66.05;37.78;;;;;;;2.45;100.00;98142.68;1731130;82;22331;-78
2022/12/31 02:31:59;;;;;;;70.00;40.60;;;;;;;2.48;100.00;98128.06;1730863;82;21375;-78
2022/12/31 02:34:33;;;;;;;77.30;43.00;;;;;;;2.46;100.00;98128.78;1730074;82;21019;-77
2022/12/31 02:37:00;;;;;;;71.10;41.42;;;;;;;2.51;100.00;98141.79;1721794;82;21070;-78
2022/12/31 02:39:27;;;;;;;81.90;52.15;;;;;;;2.58;100.00;98137.70;1730771;82;21432;-78
2022/12/31 02:41:54;;;;;;;81.28;48.95;;;;;;;2.60;100.00;98138.28;1731177;82;21023;-76
2022/12/31 02:44:28;;;;;;;77.67;48.83;;;;;;;2.68;100.00;98141.99;1730783;82;21871;-78
2022/12/31 02:47:34;;;;;;;83.07;49.73;;;;;;;2.76;100.00;98147.55;1731007;82;21015;-78
2022/12/31 02:50:15;;;;;;;85.77;52.43;;;;;;;2.81;100.00;98161.05;1731206;82;21587;-77
2022/12/31 02:52:51;;;;;;;82.50;50.45;;;;;;;2.90;100.00;98149.52;1726634;82;21031;-76
2022/12/31 02:55:33;;;;;;;86.67;56.40;;;;;;;2.90;100.00;98151.66;1735661;81;21027;-77
2022/12/31 02:58:12;;;;;;;94.17;57.55;;;;;;;2.89;100.00;98162.08;1761434;81;21500;-77
2022/12/31 03:03:32;;;;;;;80.72;48.60;;;;;;;2.82;100.00;98161.38;1761265;81;21054;-78
2022/12/31 03:06:01;;;;;;;74.40;45.30;;;;;;;2.75;100.00;98159.30;1761530;81;21007;-77
2022/12/31 03:08:28;;;;;;;83.82;51.92;;;;;;;2.74;100.00;98154.48;1761448;81;21035;-77
2022/12/31 03:10:55;;;;;;;109.48;60.20;;;;;;;2.76;100.00;98154.24;1761424;81;21882;-77
2022/12/31 03:13:23;;;;;;;87.72;54.38;;;;;;;2.81;100.00;98153.03;1761313;81;21014;-76
2022/12/31 03:15:50;;;;;;;90.70;52.53;;;;;;;2.83;100.00;98153.64;1761298;81;21082;-76
2022/12/31 03:22:26;;;;;;;80.50;53.55;;;;;;;2.86;100.00;98152.36;1761340;81;21452;-78
2022/12/31 03:23:41;;;;;;;107.92;62.67;;;;;;;2.87;100.00;98144.10;1761102;81;21262;-77
2022/12/31 03:26:10;;;;;;;95.72;57.73;;;;;;;2.85;100.00;98126.13;1761304;81;21027;-78
2022/12/31 03:28:38;;;;;;;;;;;;;;;2.83;100.00;98119.66;1763897;81;21071;-78
2022/12/31 03:31:06;;;;;;;71.20;44.77;;;;;;;2.85;100.00;98094.53;1761640;81;20505;-78
2022/12/31 03:33:35;;;;;;;72.97;44.77;;;;;;;2.73;100.00;98081.91;1761101;81;21031;-78
2022/12/31 03:36:04;;;;;;;85.38;54.35;;;;;;;2.74;100.00;98069.37;1731071;81;21078;-78
2022/12/31 03:38:31;;;;;;;;;;;;;;;2.73;100.00;98075.73;1763736;81;21098;-78
2022/12/31 03:40:58;;;;;;;87.30;51.58;;;;;;;2.71;100.00;98085.34;1761416;81;20471;-77
2022/12/31 03:43:25;;;;;;;81.25;49.23;;;;;;;2.67;100.00;98094.06;1761148;81;21007;-78
2022/12/31 03:45:52;;;;;;;89.58;55.80;;;;;;;2.66;100.00;98096.44;1761303;81;21071;-76
2022/12/31 03:48:22;;;;;;;98.70;66.95;;;;;;;2.59;100.00;98098.39;1761183;81;21441;-76
2022/12/31 03:50:49;;;;;;;82.78;52.10;;;;;;;2.54;100.00;98112.43;1762191;81;21004;-76
2022/12/31 03:53:16;;;;;;;72.53;47.40;;;;;;;2.53;100.00;98122.84;1750455;82;21021;-78
2022/12/31 03:55:43;;;;;;;85.55;52.40;;;;;;;2.57;100.00;98124.56;1767049;81;21511;-78
2022/12/31 03:58:10;;;;;;;80.85;48.83;;;;;;;2.55;100.00;98130.92;1759723;81;21052;-78
2022/12/31 04:00:37;;;;;;;77.05;50.35;;;;;;;2.55;100.00;98139.47;1732084;82;21890;-76
2022/12/31 04:03:04;;;;;;;99.00;64.67;;;;;;;2.56;100.00;98150.47;1751044;81;21025;-77
2022/12/31 04:05:32;;;;;;;100.20;64.97;;;;;;;2.54;100.00;98147.20;1732034;82;21023;-78
2022/12/31 04:07:59;;;;;;;92.83;61.17;;;;;;;2.53;100.00;98158.95;1751338;81;21054;-76
2022/12/31 04:10:26;;;;;;;74.27;50.03;;;;;;;2.50;100.00;98155.40;1732220;82;21013;-77
2022/12/31 04:12:53;;;;;;;79.22;53.05;;;;;;;2.57;100.00;98156.66;1751147;81;21085;-77
2022/12/31 04:15:20;;;;;;;83.25;53.30;;;;;;;2.64;100.00;98165.39;1732066;82;21007;-77
2022/12/31 04:17:47;;;;;;;82.12;52.58;;;;;;;2.70;100.00;98173.88;1751110;81;21065;-78
2022/12/31 04:20:15;;;;;;;80.95;53.15;;;;;;;2.72;100.00;98167.77;1733510;82;21010;-76
2022/12/31 04:22:42;;;;;;;90.50;57.08;;;;;;;2.73;100.00;98165.38;1768515;81;21020;-78
2022/12/31 04:25:10;;;;;;;88.45;53.78;;;;;;;2.69;100.00;98177.59;1768784;81;21184;-77
2022/12/31 04:27:39;;;;;;;75.65;48.73;;;;;;;2.70;100.00;98167.18;1768378;81;21012;-77
2022/12/31 04:30:07;;;;;;;71.07;42.27;;;;;;;2.78;100.00;98170.36;1746086;82;21072;-77
2022/12/31 04:32:34;;;;;;;59.60;42.20;;;;;;;2.86;100.00;98164.41;1768926;81;21008;-76
2022/12/31 04:35:01;;;;;;;58.40;37.45;;;;;;;2.93;100.00;98159.26;1768837;81;21063;-76
2022/12/31 04:37:27;;;;;;;52.40;37.33;;;;;;;3.04;100.00;98167.84;1745730;82;21208;-78
2022/12/31 04:39:54;;;;;;;67.17;42.53;;;;;;;3.09;100.00;98167.18;1768392;81;21060;-78
2022/12/31 04:42:21;;;;;;;54.55;35.43;;;;;;;3.14;100.00;98169.16;1745870;82;21008;-77
2022/12/31 04:44:48;;;;;;;22.82;12.95;;;;;;;3.26;100.00;98176.72;1768307;81;20972;-78
2022/12/31 04:47:15;;;;;;;35.13;27.20;;;;;;;3.69;100.00;98180.47;1745673;81;21029;-78
2022/12/31 04:49:42;;;;;;;30.35;20.90;;;;;;;4.16;100.00;98168.41;1768448;81;21013;-76
2022/12/31 04:52:09;;;;;;;24.25;15.28;;;;;;;4.27;100.00;98176.14;1745731;81;21060;-77
2022/12/31 04:54:36;;;;;;;26.20;16.07;;;;;;;4.29;100.00;98179.43;1768455;81;20961;-77
2022/12/31 04:57:03;;;;;;;29.85;19.07;;;;;;;4.30;100.00;98183.73;1751634;81;21032;-77
2022/12/31 04:59:30;;;;;;;34.23;21.48;;;;;;;4.31;100.00;98184.03;1751976;81;21434;-78
2022/12/31 05:01:57;;;;;;;23.00;15.50;;;;;;;4.33;100.00;98191.30;1752290;81;21009;-76
2022/12/31 05:04:24;;;;;;;37.42;17.82;;;;;;;4.35;100.00;98201.27;1751810;81;21497;-77
2022/12/31 05:06:51;;;;;;;37.53;21.02;;;;;;;4.34;100.00;98210.37;1752173;81;21512;-77
2022/12/31 05:09:18;;;;;;;26.25;14.53;;;;;;;4.33;100.00;98220.29;1752024;81;21072;-77
2022/12/31 05:11:45;;;;;;;27.80;17.35;;;;;;;4.37;100.00;98228.70;1752221;81;21072;-77
2022/12/31 05:14:12;;;;;;;24.60;17.05;;;;;;;4.54;100.00;98230.96;1751974;81;21157;-78
2022/12/31 05:16:39;;;;;;;25.80;16.60;;;;;;;4.74;100.00;98242.13;1752224;81;21072;-78
2022/12/31 05:19:08;;;;;;;19.92;11.12;;;;;;;4.92;100.00;98243.83;1752063;81;21021;-76
2022/12/31 05:21:35;;;;;;;15.70;10.32;;;;;;;5.09;100.00;98251.42;1747570;81;28398;-78
2022/12/31 05:24:01;;;;;;;10.78;6.35;;;;;;;5.28;100.00;98248.55;1762657;81;21052;-77
2022/12/31 05:26:28;;;;;;;7.17;4.55;;;;;;;5.54;100.00;98241.77;1762718;81;21761;-77
2022/12/31 05:28:55;;;;;;;5.65;3.42;;;;;;;5.97;100.00;98253.83;1762454;81;21001;-77
2022/12/31 05:31:22;;;;;;;11.18;4.83;;;;;;;6.39;100.00;98251.53;1762747;81;21456;-78
2022/12/31 05:33:49;;;;;;;7.03;4.72;;;;;;;6.74;100.00;98255.25;1762507;81;21009;-77
2022/12/31 05:36:16;;;;;;;4.20;2.83;;;;;;;6.98;100.00;98247.75;1762674;81;21016;-79
2022/12/31 05:38:43;;;;;;;5.10;2.83;;;;;;;7.23;100.00;98229.72;1762491;81;21189;-78
2022/12/31 05:41:10;;;;;;;6.25;3.67;;;;;;;7.48;100.00;98231.34;1762597;81;21507;-78
2022/12/31 05:43:37;;;;;;;5.42;4.12;;;;;;;7.70;100.00;98235.34;1762501;81;21099;-78
2022/12/31 05:46:04;;;;;;;4.22;3.02;;;;;;;7.81;100.00;98244.34;1762906;81;21059;-78
2022/12/31 05:48:31;;;;;;;6.83;4.12;;;;;;;7.82;100.00;98247.31;1762890;81;21076;-78
2022/12/31 05:50:58;;;;;;;7.55;3.25;;;;;;;7.87;100.00;98247.37;1745068;82;21093;-78
2022/12/31 05:53:25;;;;;;;6.03;4.00;;;;;;;7.95;100.00;98250.95;1762589;81;21084;-77
2022/12/31 05:55:52;;;;;;;5.78;3.37;;;;;;;7.97;100.00;98251.50;1748119;81;21509;-77
2022/12/31 05:58:19;;;;;;;5.75;3.42;;;;;;;8.00;100.00;98260.95;1752312;80;20970;-77
2022/12/31 06:00:45;;;;;;;4.50;3.15;;;;;;;8.06;100.00;98252.66;1752489;81;21512;-78
2022/12/31 06:03:12;;;;;;;5.55;3.10;;;;;;;8.14;100.00;98235.98;1752336;81;21002;-77
2022/12/31 06:05:41;;;;;;;5.15;2.90;;;;;;;8.18;100.00;98243.02;1752206;81;21057;-77
2022/12/31 06:08:09;;;;;;;6.97;3.80;;;;;;;8.16;100.00;98247.33;1752338;81;21029;-77
2022/12/31 06:10:36;;;;;;;49.05;28.60;;;;;;;8.16;100.00;98250.56;1752332;81;21461;-78
2022/12/31 06:13:03;;;;;;;63.17;35.92;;;;;;;8.13;100.00;98241.11;1772766;80;21011;-79
2022/12/31 06:15:30;;;;;;;6.95;3.72;;;;;;;8.13;100.00;98241.11;1772529;80;21621;-77
2022/12/31 06:17:57;;;;;;;5.17;3.25;;;;;;;8.19;100.00;98244.64;1772805;80;21008;-77
2022/12/31 06:20:24;;;;;;;6.00;3.77;;;;;;;8.23;100.00;98251.70;1771828;80;20984;-78
2022/12/31 06:22:51;;;;;;;4.45;2.85;;;;;;;8.20;100.00;98247.11;1768887;81;21342;-78
2022/12/31 06:25:17;;;;;;;8.30;3.62;;;;;;;8.17;100.00;98231.41;1768523;81;21991;-77
2022/12/31 06:27:44;;;;;;;6.47;3.67;;;;;;;8.17;100.00;98231.41;1745849;82;21354;-77
2022/12/31 06:30:12;;;;;;;3.83;2.67;;;;;;;8.14;100.00;98226.53;1768535;81;21516;-79
2022/12/31 06:32:39;;;;;;;32.75;19.17;;;;;;;8.11;100.00;98238.37;1745914;81;20977;-77
2022/12/31 06:35:07;;;;;;;8.00;4.60;;;;;;;8.12;100.00;98246.23;1767960;81;38778;-77
2022/12/31 06:37:34;;;;;;;5.67;2.83;;;;;;;8.15;100.00;98246.24;1768726;81;21000;-77
2022/12/31 06:40:01;;;;;;;5.37;2.98;;;;;;;8.14;100.00;98248.67;1768563;81;21759;-77
2022/12/31 06:42:32;;;;;;;4.58;2.85;;;;;;;8.12;100.00;98232.73;1768406;81;21060;-79
2022/12/31 06:44:59;;;;;;;3.50;2.62;;;;;;;8.23;100.00;98227.41;1768455;81;20973;-77
2022/12/31 06:47:26;;;;;;;5.47;3.42;;;;;;;8.29;100.00;98237.98;1768701;81;21004;-79
2022/12/31 06:49:53;;;;;;;4.08;2.35;;;;;;;8.34;100.00;98243.94;1768445;81;21034;-79
2022/12/31 06:52:20;;;;;;;5.20;2.90;;;;;;;8.44;100.00;98250.79;1768745;81;21160;-77
2022/12/31 06:54:48;;;;;;;3.67;2.40;;;;;;;8.44;100.00;98250.79;1745448;82;21478;-77
2022/12/31 06:57:15;;;;;;;4.33;2.77;;;;;;;8.47;100.00;98251.64;1759968;81;21012;-78
2022/12/31 06:59:43;;;;;;;3.45;2.35;;;;;;;8.52;100.00;98259.75;1731822;82;20987;-77
2022/12/31 07:02:50;;;;;;;2.90;2.20;;;;;;;8.52;100.00;98260.30;1751522;81;21427;-77
2022/12/31 07:05:50;;;;;;;3.67;2.10;;;;;;;8.61;100.00;98269.53;1731882;82;21035;-78
2022/12/31 07:08:49;;;;;;;4.50;2.35;;;;;;;8.80;100.00;98270.72;1750984;81;21010;-77
2022/12/31 07:11:31;;;;;;;;;;;;;;;8.80;100.00;98270.72;1734855;82;21051;-78
2022/12/31 07:14:27;;;;;;;2.90;2.35;;;;;;;8.84;100.00;98275.89;1750843;81;20159;-77
2022/12/31 07:17:15;;;;;;;5.78;3.27;;;;;;;8.83;100.00;98263.46;1687817;82;20999;-77
2022/12/31 07:19:47;;;;;;;4.40;2.25;;;;;;;8.78;100.00;98274.77;1750791;81;21031;-79
2022/12/31 07:22:16;;;;;;;2.75;2.25;;;;;;;8.74;100.00;98282.59;1743035;82;21064;-77
2022/12/31 07:24:43;;;;;;;4.63;3.00;;;;;;;8.76;100.00;98274.50;1762763;81;21421;-79
2022/12/31 07:27:31;;;;;;;4.85;2.87;;;;;;;8.79;100.00;98265.05;1762630;81;21403;-79
2022/12/31 07:30:12;;;;;;;5.30;2.60;;;;;;;8.79;100.00;98265.05;1762606;81;21012;-77
2022/12/31 07:33:06;;;;;;;3.70;2.70;;;;;;;8.94;100.00;98284.05;1760764;81;21663;-77
2022/12/31 07:35:57;;;;;;;4.97;2.47;;;;;;;9.03;100.00;98278.95;1744839;81;21025;-77
2022/12/31 07:38:41;;;;;;;4.17;2.55;;;;;;;9.11;100.00;98268.99;1762729;81;21013;-79
2022/12/31 07:41:53;;;;;;;2.17;1.42;;;;;;;9.15;100.00;98287.69;1762852;81;21096;-79
2022/12/31 07:44:41;;;;;;;4.45;2.58;;;;;;;9.15;100.00;98294.98;1745022;82;20989;-79
2022/12/31 07:47:23;;;;;;;4.80;2.33;;;;;;;9.18;100.00;98292.55;1762831;81;21720;-79
2022/12/31 07:49:50;;;;;;;4.45;2.90;;;;;;;9.25;100.00;98297.19;1762253;81;20992;-77
2022/12/31 07:52:19;;;;;;;2.85;1.55;;;;;;;9.29;100.00;98301.52;1715646;82;21077;-77
2022/12/31 07:54:46;;;;;;;3.20;2.00;;;;;;;9.35;100.00;98295.05;1762587;81;21480;-77
2022/12/31 07:57:14;;;;;;;3.67;2.00;;;;;;;9.40;100.00;98303.20;1752692;81;21009;-78
2022/12/31 08:00:07;;;;;;;4.03;2.30;;;;;;;9.44;100.00;98306.98;1752144;81;21169;-77
2022/12/31 08:02:48;;;;;;;4.03;2.37;;;;;;;9.53;100.00;98312.70;1749628;81;21011;-79
2022/12/31 08:05:41;;;;;;;3.37;2.05;;;;;;;9.60;100.00;98299.20;1743639;81;21049;-78
2022/12/31 08:08:39;;;;;;;3.10;2.02;;;;;;;9.67;100.00;98313.02;1749619;80;21028;-79
2022/12/31 08:11:33;;;;;;;3.75;2.42;;;;;;;9.73;100.00;98310.58;1787288;80;21000;-77
2022/12/31 08:14:00;;;;;;;4.62;2.98;;;;;;;9.77;100.00;98314.39;1792668;80;21506;-79
2022/12/31 08:16:28;;;;;;;5.10;2.60;;;;;;;9.79;100.00;98314.94;1742612;80;21009;-77
2022/12/31 08:18:56;;;;;;;3.60;2.30;;;;;;;9.78;100.00;98316.02;1762930;80;21009;-77
2022/12/31 08:21:50;;;;;;;6.47;2.67;;;;;;;9.76;100.00;98333.06;1746327;81;21005;-78
2022/12/31 08:24:37;;;;;;;5.95;2.80;;;;;;;9.75;100.00;98338.21;1758627;80;21132;-79
2022/12/31 08:27:21;;;;;;;4.78;2.47;;;;;;;9.76;100.00;98339.84;1733318;80;21080;-79
2022/12/31 08:30:02;;;;;;;9.58;4.83;;;;;;;9.77;100.00;98331.44;1732849;81;20985;-79
2022/12/31 08:33:07;;;;;;;7.87;4.72;;;;;;;9.73;100.00;98326.27;1739018;81;21059;-79
2022/12/31 08:35:51;;;;;;;6.72;3.67;;;;;;;9.70;100.00;98318.70;1706670;82;20984;-78
2022/12/31 08:38:59;;;;;;;4.85;3.42;;;;;;;9.70;100.00;98320.05;1731121;81;22158;-76
2022/12/31 08:41:44;;;;;;;5.42;3.45;;;;;;;9.68;100.00;98311.94;1747381;81;21059;-76
2022/12/31 08:44:48;;;;;;;4.50;2.85;;;;;;;9.65;100.00;98305.69;1756408;81;21514;-77
2022/12/31 08:47:28;;;;;;;4.25;2.85;;;;;;;9.69;100.00;98305.44;1761244;81;21059;-79
2022/12/31 08:49:55;;;;;;;4.00;2.40;;;;;;;9.75;100.00;98316.02;1752937;81;21457;-77
2022/12/31 08:52:24;;;;;;;5.62;3.62;;;;;;;9.83;100.00;98309.27;1731167;82;21455;-78
2022/12/31 08:54:53;;;;;;;4.75;2.95;;;;;;;9.89;100.00;98306.83;1729908;80;21012;-78
2022/12/31 08:57:48;;;;;;;5.53;3.45;;;;;;;9.94;100.00;98306.04;1750869;81;21014;-78
2022/12/31 09:00:17;;;;;;;18.92;9.08;;;;;;;9.97;100.00;98299.53;1751500;81;21427;-76
2022/12/31 09:03:27;;;;;;;7.42;3.40;;;;;;;10.06;100.00;98303.88;1751507;81;21462;-76
2022/12/31 09:06:26;;;;;;;4.97;2.77;;;;;;;10.13;100.00;98294.95;1757059;81;21031;-78
2022/12/31 09:09:07;;;;;;;4.75;2.83;;;;;;;10.23;100.00;98301.75;1761488;81;21347;-76
2022/12/31 09:12:10;;;;;;;3.55;2.25;;;;;;;10.32;100.00;98298.77;1734585;81;21456;-77
2022/12/31 09:14:42;;;;;;;3.65;2.05;;;;;;;10.39;100.00;98304.73;1730803;82;21345;-77
2022/12/31 09:17:32;;;;;;;6.70;3.33;;;;;;;10.47;100.00;98297.96;1731411;82;21067;-77
2022/12/31 09:19:59;;;;;;;4.30;3.10;;;;;;;10.56;100.00;98289.55;1739440;81;20978;-78
2022/12/31 09:22:27;;;;;;;4.05;2.40;;;;;;;10.64;100.00;98294.42;1758074;81;21056;-77
2022/12/31 09:24:54;;;;;;;3.90;2.20;;;;;;;10.68;100.00;98305.00;1753451;81;21030;-77
2022/12/31 09:27:31;;;;;;;7.00;2.62;;;;;;;10.74;100.00;98303.89;1731129;82;21083;-77
2022/12/31 09:30:10;;;;;;;4.25;2.75;;;;;;;10.81;100.00;98309.58;1734416;80;21010;-79
2022/12/31 09:32:54;;;;;;;3.95;2.58;;;;;;;10.89;99.56;98313.09;1772885;80;21056;-77
2022/12/31 09:35:42;;;;;;;6.00;2.45;;;;;;;10.97;99.16;98316.05;1770806;80;21752;-77
2022/12/31 09:38:41;;;;;;;4.53;2.10;;;;;;;11.07;99.66;98316.56;1792702;80;20993;-77
2022/12/31 09:41:13;;;;;;;4.70;2.27;;;;;;;11.13;99.37;98317.37;1792417;80;21525;-77
2022/12/31 09:43:52;;;;;;;4.40;2.62;;;;;;;11.15;98.48;98320.62;1786418;80;21022;-79
2022/12/31 09:46:50;;;;;;;11.10;4.20;;;;;;;11.22;99.57;98305.67;1751601;81;21430;-77
2022/12/31 09:49:57;;;;;;;4.67;2.95;;;;;;;11.28;98.80;98301.05;1751706;81;22087;-77
2022/12/31 09:52:41;;;;;;;11.75;4.85;;;;;;;11.32;98.50;98285.83;1751697;81;21002;-77
2022/12/31 09:55:34;;;;;;;4.08;2.22;;;;;;;11.41;98.06;98300.98;1750992;81;21514;-78
2022/12/31 09:58:31;;;;;;;2.85;1.75;;;;;;;11.52;98.03;98298.48;1733856;82;21484;-78
2022/12/31 10:01:06;;;;;;;5.42;2.20;;;;;;;11.65;97.33;98291.65;1662021;85;21619;-77
2022/12/31 10:04:03;;;;;;;4.00;2.62;;;;;;;11.79;96.76;98288.56;1737188;81;21584;-76
2022/12/31 10:07:10;;;;;;;5.90;2.75;;;;;;;11.87;96.75;98286.64;1738418;81;21003;-77
2022/12/31 10:10:06;;;;;;;12.25;7.42;;;;;;;11.91;96.97;98295.87;1755836;81;21532;-77
2022/12/31 10:13:06;;;;;;;5.72;3.42;;;;;;;11.94;96.85;98308.87;1728483;83;21471;-77
2022/12/31 10:15:49;;;;;;;7.25;3.77;;;;;;;11.93;97.00;98311.33;1728507;81;21008;-77
2022/12/31 10:18:54;;;;;;;7.80;4.75;;;;;;;11.88;97.09;98316.80;1728846;83;21916;-77
2022/12/31 10:21:54;;;;;;;6.20;3.30;;;;;;;11.90;97.42;98317.88;1743911;81;21018;-79
2022/12/31 10:24:56;;;;;;;4.30;2.70;;;;;;;11.88;96.82;98305.10;1741956;81;21369;-78
2022/12/31 10:27:50;;;;;;;14.53;5.87;;;;;;;11.86;97.09;98308.11;1742843;81;20982;-77
2022/12/31 10:30:20;;;;;;;20.65;9.95;;;;;;;11.83;97.18;98314.91;1748598;81;21010;-79
2022/12/31 10:33:07;;;;;;;11.85;5.70;;;;;;;11.88;96.24;98315.45;1746587;81;21537;-79
2022/12/31 10:36:08;;;;;;;18.05;8.53;;;;;;;11.85;95.96;98319.52;1746301;81;21031;-79
2022/12/31 10:38:40;;;;;;;5.55;2.95;;;;;;;11.85;95.99;98300.51;1751597;81;20999;-77
2022/12/31 10:41:25;;;;;;;4.00;2.17;;;;;;;11.82;95.99;98303.80;1771453;80;21066;-77
2022/12/31 10:44:24;;;;;;;5.30;2.55;;;;;;;11.78;95.93;98297.25;1760471;80;21070;-79
2022/12/31 10:47:23;;;;;;;8.70;3.45;;;;;;;11.74;96.17;98307.61;1782303;80;21194;-77
2022/12/31 10:50:37;;;;;;;7.05;4.83;;;;;;;11.72;96.29;98306.55;1783314;80;21045;-77
2022/12/31 10:53:24;;;;;;;8.13;4.85;;;;;;;11.74;96.92;98309.78;1783060;79;21026;-77
2022/12/31 10:56:42;;;;;;;9.20;5.25;;;;;;;11.81;96.62;98310.87;1761221;79;21050;-77
2022/12/31 10:59:34;;;;;;;11.90;6.60;;;;;;;11.87;96.58;98313.80;1751820;80;21556;-79
2022/12/31 11:02:53;;;;;;;4.83;2.72;;;;;;;11.93;96.54;98324.91;1785790;80;20996;-77
2022/12/31 11:05:40;;;;;;;;;;;;;;;11.98;96.64;98320.00;1705966;81;21444;-79
2022/12/31 11:08:46;;;;;;;6.20;3.90;;;;;;;12.03;95.54;98317.23;1748704;81;20193;-77
2022/12/31 11:11:48;;;;;;;5.00;2.80;;;;;;;12.03;96.29;98311.80;1751107;81;21430;-76
2022/12/31 11:14:45;;;;;;;5.45;4.00;;;;;;;12.02;95.73;98331.36;1751185;81;21268;-79
2022/12/31 11:17:26;;;;;;;5.80;3.40;;;;;;;12.06;96.16;98337.88;1751507;81;21031;-77
2022/12/31 11:20:16;;;;;;;4.22;2.33;;;;;;;12.11;96.45;98351.95;1751639;81;21018;-78
2022/12/31 11:23:06;;;;;;;3.65;2.10;;;;;;;12.21;96.20;98352.42;1740090;81;20989;-78
2022/12/31 11:26:04;;;;;;;5.50;3.02;;;;;;;12.29;96.26;98354.55;1733740;81;21038;-79
2022/12/31 11:28:51;;;;;;;5.05;2.77;;;;;;;12.41;96.36;98357.19;1768545;80;21025;-79
2022/12/31 11:31:33;;;;;;;3.47;1.82;;;;;;;12.53;94.84;98348.66;1751078;81;21068;-79
2022/12/31 11:34:38;;;;;;;4.33;2.12;;;;;;;12.57;93.48;98337.50;1755423;81;21393;-78
2022/12/31 11:37:29;;;;;;;17.85;7.00;;;;;;;12.62;93.73;98332.55;1746169;79;21048;-79
2022/12/31 11:40:29;;;;;;;12.03;4.97;;;;;;;12.61;93.30;98314.63;1783727;79;21058;-79
2022/12/31 11:43:18;;;;;;;7.15;3.75;;;;;;;12.63;93.45;98311.88;1777618;79;21000;-77
2022/12/31 11:46:17;;;;;;;5.75;2.15;;;;;;;12.60;92.86;98307.02;1758744;79;21987;-79
2022/12/31 11:49:30;;;;;;;9.40;5.53;;;;;;;12.59;92.59;98316.27;1757148;81;21012;-77
2022/12/31 11:52:22;;;;;;;4.08;2.50;;;;;;;12.62;92.54;98327.92;1749986;81;21500;-77
2022/12/31 11:55:01;;;;;;;4.25;2.55;;;;;;;12.67;92.98;98323.81;1763272;79;21064;-79
2022/12/31 11:57:37;;;;;;;2.95;1.40;;;;;;;12.70;92.41;98321.88;1733210;81;21571;-78
2022/12/31 12:00:22;;;;;;;7.08;2.52;;;;;;;12.69;92.66;98311.28;1747221;79;21129;-79
2022/12/31 12:03:00;;;;;;;4.50;1.92;;;;;;;12.68;92.57;98317.27;1793384;79;21112;-77
2022/12/31 12:05:27;;;;;;;4.95;2.27;;;;;;;12.67;92.66;98318.38;1753480;79;21603;-77
2022/12/31 12:07:54;;;;;;;3.67;2.00;;;;;;;12.64;92.15;98304.52;1755351;81;21019;-79
2022/12/31 12:10:49;;;;;;;2.30;1.32;;;;;;;12.63;91.75;98313.23;1748969;81;21022;-79
2022/12/31 12:13:23;;;;;;;4.08;1.72;;;;;;;12.59;92.39;98304.04;1748214;81;21027;-77
2022/12/31 12:15:53;;;;;;;2.35;1.55;;;;;;;12.56;91.91;98295.11;1747338;81;20986;-77